OAL855 LGST-LGKC

Flight info

Callsign OAL855
Flight time 1h 26m
Altitude 12000
Route VEGES J65 SOKRI
Aircraft C208/L-SDFGR/C

Departure

Time 2026-05-07 06:30
Airport Sitia Airport (LGST)

Arrival

Time 2026-05-07 07:56
Airport Kithira Airport (LGKC)
Time Latitude Longitude Altitude Speed Heading
2026-05-07 06:11 35.21685 26.09903 359 ft 0 kts 50°
2026-05-07 06:25 35.21662 26.09916 361 ft 8 kts 177°
2026-05-07 06:25 35.21596 26.09868 361 ft 15 kts 228°
2026-05-07 06:26 35.21511 26.09808 365 ft 11 kts 178°
2026-05-07 06:26 35.21422 26.09809 362 ft 16 kts 198°
2026-05-07 06:26 35.21328 26.09702 368 ft 20 kts 229°
2026-05-07 06:26 35.21247 26.09582 375 ft 19 kts 230°
2026-05-07 06:27 35.21158 26.09451 380 ft 20 kts 229°
2026-05-07 06:27 35.21072 26.09344 385 ft 14 kts 213°
2026-05-07 06:27 35.21014 26.09268 386 ft 14 kts 289°
2026-05-07 06:27 35.21061 26.09306 388 ft 6 kts 56°
2026-05-07 06:28 35.21066 26.09314 385 ft 0 kts 48°
2026-05-07 06:28 35.21067 26.09315 385 ft 2 kts 47°
2026-05-07 06:28 35.21139 26.09417 382 ft 37 kts 51°
2026-05-07 06:29 35.21403 26.09810 368 ft 80 kts 50°
2026-05-07 06:29 35.21798 26.10371 493 ft 87 kts 47°
2026-05-07 06:29 35.22234 26.10920 663 ft 90 kts 41°
2026-05-07 06:29 35.22720 26.11441 787 ft 101 kts 38°
2026-05-07 06:30 35.23301 26.11898 997 ft 99 kts 32°
2026-05-07 06:30 35.23927 26.12426 1053 ft 115 kts 36°
2026-05-07 06:30 35.24573 26.13058 1241 ft 118 kts 44°
2026-05-07 06:30 35.25139 26.13751 1514 ft 114 kts 45°
2026-05-07 06:31 35.25727 26.14436 1672 ft 121 kts 45°
2026-05-07 06:31 35.26372 26.15075 1940 ft 116 kts 27°
2026-05-07 06:31 35.27070 26.15565 2157 ft 116 kts 33°
2026-05-07 06:31 35.27749 26.16129 2360 ft 119 kts 34°
2026-05-07 06:32 35.28431 26.16718 2550 ft 121 kts 34°
2026-05-07 06:32 35.29124 26.17328 2736 ft 124 kts 35°
2026-05-07 06:32 35.29810 26.17938 2941 ft 122 kts 34°
2026-05-07 06:32 35.30492 26.18544 3171 ft 120 kts 34°
2026-05-07 06:33 35.31165 26.19144 3393 ft 119 kts 34°
2026-05-07 06:33 35.31829 26.19734 3606 ft 117 kts 34°
2026-05-07 06:33 35.32491 26.20325 3805 ft 118 kts 34°
2026-05-07 06:33 35.33155 26.20918 3996 ft 118 kts 34°
2026-05-07 06:34 35.33906 26.21231 4204 ft 116 kts 351°
2026-05-07 06:34 35.34618 26.20815 4412 ft 115 kts 313°
2026-05-07 06:34 35.34914 26.19921 4625 ft 117 kts 272°
2026-05-07 06:34 35.34631 26.19007 4841 ft 119 kts 227°
2026-05-07 06:35 35.33922 26.18479 5057 ft 125 kts 206°
2026-05-07 06:35 35.33159 26.17979 5257 ft 124 kts 210°
2026-05-07 06:35 35.32374 26.17464 5475 ft 135 kts 208°
2026-05-07 06:35 35.31537 26.16929 5687 ft 135 kts 208°
2026-05-07 06:36 35.30716 26.16399 5893 ft 133 kts 208°
2026-05-07 06:36 35.29901 26.15875 6092 ft 131 kts 208°
2026-05-07 06:36 35.29095 26.15356 6286 ft 131 kts 208°
2026-05-07 06:36 35.28294 26.14840 6480 ft 130 kts 208°
2026-05-07 06:37 35.27498 26.14328 6670 ft 128 kts 208°
2026-05-07 06:37 35.26712 26.13822 6853 ft 127 kts 208°
2026-05-07 06:37 35.25933 26.13321 7036 ft 126 kts 208°
2026-05-07 06:37 35.25169 26.12829 7198 ft 126 kts 209°
2026-05-07 06:38 35.24397 26.12331 7361 ft 125 kts 209°
2026-05-07 06:38 35.23632 26.11839 7525 ft 124 kts 209°
2026-05-07 06:38 35.22872 26.11352 7689 ft 123 kts 209°
2026-05-07 06:38 35.22148 26.10783 7857 ft 126 kts 233°
2026-05-07 06:39 35.21821 26.09809 8031 ft 125 kts 269°
2026-05-07 06:39 35.21811 26.08743 8227 ft 127 kts 271°
2026-05-07 06:39 35.21782 26.07651 8425 ft 129 kts 271°
2026-05-07 06:39 35.21759 26.06542 8608 ft 131 kts 271°
2026-05-07 06:40 35.21735 26.05438 8786 ft 132 kts 271°
2026-05-07 06:40 35.21712 26.04319 8969 ft 131 kts 271°
2026-05-07 06:40 35.21687 26.03203 9151 ft 131 kts 271°
2026-05-07 06:40 35.21666 26.02087 9324 ft 131 kts 272°
2026-05-07 06:41 35.21642 26.00976 9507 ft 131 kts 271°
2026-05-07 06:41 35.21619 25.99872 9680 ft 129 kts 271°
2026-05-07 06:41 35.21592 25.98785 9860 ft 127 kts 271°
2026-05-07 06:41 35.21569 25.97717 10038 ft 124 kts 271°
2026-05-07 06:42 35.21546 25.96668 10183 ft 122 kts 272°
2026-05-07 06:42 35.21524 25.95652 10333 ft 120 kts 272°
2026-05-07 06:42 35.21501 25.94632 10468 ft 120 kts 272°
2026-05-07 06:42 35.21487 25.94003 10556 ft 119 kts 272°
2026-05-07 06:43 35.21465 25.92990 10693 ft 118 kts 272°
2026-05-07 06:43 35.21442 25.91986 10826 ft 117 kts 272°
2026-05-07 06:43 35.21420 25.90990 10964 ft 116 kts 272°
2026-05-07 06:43 35.21398 25.90005 11099 ft 116 kts 272°
2026-05-07 06:44 35.21376 25.89015 11193 ft 118 kts 272°
2026-05-07 06:44 35.21353 25.88008 11293 ft 119 kts 272°
2026-05-07 06:44 35.21331 25.86987 11398 ft 121 kts 272°
2026-05-07 06:44 35.21308 25.85971 11499 ft 121 kts 272°
2026-05-07 06:45 35.21285 25.84936 11596 ft 121 kts 272°
2026-05-07 06:45 35.21261 25.83903 11701 ft 122 kts 272°
2026-05-07 06:45 35.21237 25.82869 11798 ft 122 kts 272°
2026-05-07 06:45 35.21213 25.81834 11897 ft 122 kts 272°
2026-05-07 06:46 35.21189 25.80792 11981 ft 123 kts 272°
2026-05-07 06:46 35.21165 25.79750 12058 ft 125 kts 272°
2026-05-07 06:46 35.21140 25.78679 12113 ft 129 kts 272°
2026-05-07 06:46 35.21115 25.77559 12124 ft 135 kts 272°
2026-05-07 06:47 35.21090 25.76390 12129 ft 140 kts 272°
2026-05-07 06:47 35.21061 25.75177 12125 ft 144 kts 272°
2026-05-07 06:47 35.21032 25.73940 12122 ft 147 kts 272°
2026-05-07 06:47 35.21002 25.72683 12133 ft 149 kts 272°
2026-05-07 06:48 35.20971 25.71410 12137 ft 150 kts 272°
2026-05-07 06:48 35.20939 25.70119 12140 ft 154 kts 272°
2026-05-07 06:48 35.20907 25.68811 12138 ft 155 kts 272°
2026-05-07 06:48 35.20908 25.67501 12110 ft 155 kts 281°
2026-05-07 06:49 35.21234 25.66257 12115 ft 154 kts 291°
2026-05-07 06:49 35.21570 25.65014 12110 ft 154 kts 290°
2026-05-07 06:49 35.21904 25.63767 12112 ft 154 kts 290°
2026-05-07 06:49 35.22242 25.62519 12116 ft 155 kts 290°
2026-05-07 06:50 35.22581 25.61267 12110 ft 155 kts 291°
2026-05-07 06:50 35.22923 25.60017 12117 ft 155 kts 290°
2026-05-07 06:50 35.23257 25.58761 12111 ft 155 kts 290°
2026-05-07 06:50 35.23597 25.57511 12113 ft 155 kts 290°
2026-05-07 06:51 35.23937 25.56252 12112 ft 157 kts 290°
2026-05-07 06:51 35.24279 25.54982 12111 ft 157 kts 290°
2026-05-07 06:51 35.24623 25.53717 12111 ft 157 kts 290°
2026-05-07 06:51 35.24965 25.52446 12113 ft 158 kts 290°
2026-05-07 06:52 35.25310 25.51166 12118 ft 159 kts 290°
2026-05-07 06:52 35.25657 25.49874 12117 ft 160 kts 290°
2026-05-07 06:52 35.26001 25.48601 12116 ft 159 kts 290°
2026-05-07 06:52 35.26348 25.47318 12116 ft 159 kts 290°
2026-05-07 06:53 35.26692 25.46038 12116 ft 158 kts 290°
2026-05-07 06:53 35.27035 25.44761 12114 ft 158 kts 290°
2026-05-07 06:53 35.27379 25.43480 12118 ft 159 kts 290°
2026-05-07 06:53 35.27726 25.42192 12120 ft 160 kts 290°
2026-05-07 06:54 35.27957 25.41333 12121 ft 160 kts 290°
2026-05-07 06:54 35.28305 25.40038 12120 ft 160 kts 290°
2026-05-07 06:54 35.28650 25.38751 12120 ft 159 kts 290°
2026-05-07 06:54 35.28995 25.37465 12120 ft 159 kts 290°
2026-05-07 06:55 35.29340 25.36180 12121 ft 159 kts 290°
2026-05-07 06:55 35.29798 25.34471 12126 ft 159 kts 290°
2026-05-07 06:55 35.30030 25.33603 12120 ft 159 kts 290°
2026-05-07 06:55 35.30371 25.32334 12119 ft 158 kts 290°
2026-05-07 06:56 35.30714 25.31053 12121 ft 158 kts 290°
2026-05-07 06:56 35.31056 25.29771 12121 ft 158 kts 290°
2026-05-07 06:56 35.31399 25.28491 12123 ft 158 kts 290°
2026-05-07 06:56 35.31741 25.27212 12121 ft 158 kts 290°
2026-05-07 06:57 35.32083 25.25933 12122 ft 158 kts 290°
2026-05-07 06:57 35.32425 25.24650 12125 ft 159 kts 290°
2026-05-07 06:57 35.32769 25.23361 12125 ft 160 kts 290°
2026-05-07 06:57 35.33116 25.22062 12128 ft 161 kts 290°
2026-05-07 06:58 35.33463 25.20759 12123 ft 161 kts 290°
2026-05-07 06:58 35.33809 25.19464 12121 ft 159 kts 290°
2026-05-07 06:58 35.34131 25.18172 12122 ft 160 kts 285°
2026-05-07 06:58 35.34365 25.16836 12122 ft 161 kts 285°
2026-05-07 06:59 35.34619 25.15502 12126 ft 161 kts 286°
2026-05-07 06:59 35.34866 25.14172 12119 ft 159 kts 285°
2026-05-07 06:59 35.35108 25.12856 12118 ft 158 kts 285°
2026-05-07 06:59 35.35349 25.11548 12119 ft 157 kts 285°
2026-05-07 07:00 35.35590 25.10249 12114 ft 156 kts 285°
2026-05-07 07:00 35.35826 25.08973 12114 ft 155 kts 285°
2026-05-07 07:00 35.36064 25.07684 12113 ft 155 kts 285°
2026-05-07 07:00 35.36301 25.06399 12119 ft 154 kts 285°
2026-05-07 07:01 35.36537 25.05119 12114 ft 154 kts 285°
2026-05-07 07:01 35.36772 25.03839 12116 ft 154 kts 285°
2026-05-07 07:01 35.37011 25.02544 12115 ft 156 kts 285°
2026-05-07 07:01 35.37248 25.01249 12117 ft 156 kts 285°
2026-05-07 07:02 35.37488 24.99948 12122 ft 156 kts 285°
2026-05-07 07:02 35.37728 24.98640 12114 ft 158 kts 285°
2026-05-07 07:02 35.37968 24.97327 12121 ft 158 kts 285°
2026-05-07 07:02 35.38206 24.96029 12109 ft 158 kts 285°
2026-05-07 07:03 35.38447 24.94717 12109 ft 157 kts 285°
2026-05-07 07:03 35.38688 24.93410 12110 ft 157 kts 285°
2026-05-07 07:03 35.38927 24.92098 12106 ft 157 kts 285°
2026-05-07 07:03 35.39163 24.90795 12112 ft 156 kts 285°
2026-05-07 07:04 35.39403 24.89489 12109 ft 157 kts 285°
2026-05-07 07:04 35.39641 24.88196 12106 ft 157 kts 285°
2026-05-07 07:04 35.39879 24.86888 12106 ft 157 kts 285°
2026-05-07 07:04 35.40117 24.85577 12112 ft 159 kts 285°
2026-05-07 07:05 35.40362 24.84236 12120 ft 163 kts 285°
2026-05-07 07:05 35.40614 24.82856 12113 ft 168 kts 285°
2026-05-07 07:05 35.40869 24.81450 12102 ft 169 kts 285°
2026-05-07 07:05 35.41129 24.80041 12103 ft 168 kts 285°
2026-05-07 07:06 35.41377 24.78655 12097 ft 165 kts 285°
2026-05-07 07:06 35.41626 24.77274 12109 ft 168 kts 285°
2026-05-07 07:06 35.41887 24.75874 12115 ft 169 kts 285°
2026-05-07 07:06 35.42140 24.74468 12094 ft 167 kts 284°
2026-05-07 07:07 35.42386 24.73087 12111 ft 167 kts 284°
2026-05-07 07:07 35.42638 24.71691 12092 ft 166 kts 285°
2026-05-07 07:07 35.42887 24.70321 12093 ft 163 kts 285°
2026-05-07 07:07 35.43130 24.68971 12096 ft 161 kts 285°
2026-05-07 07:08 35.43367 24.67657 12098 ft 159 kts 285°
2026-05-07 07:08 35.43604 24.66342 12100 ft 157 kts 285°
2026-05-07 07:08 35.43840 24.65031 12098 ft 156 kts 285°
2026-05-07 07:08 35.44075 24.63724 12094 ft 157 kts 285°
2026-05-07 07:09 35.44309 24.62422 12095 ft 156 kts 285°
2026-05-07 07:09 35.44543 24.61122 12092 ft 156 kts 285°
2026-05-07 07:09 35.44776 24.59823 12093 ft 156 kts 285°
2026-05-07 07:09 35.45009 24.58527 12098 ft 155 kts 285°
2026-05-07 07:10 35.45241 24.57232 12096 ft 155 kts 285°
2026-05-07 07:10 35.45469 24.55953 12096 ft 155 kts 285°
2026-05-07 07:10 35.45702 24.54658 12095 ft 155 kts 284°
2026-05-07 07:10 35.45933 24.53363 12095 ft 155 kts 285°
2026-05-07 07:11 35.46165 24.52068 12095 ft 155 kts 285°
2026-05-07 07:11 35.46396 24.50771 12094 ft 155 kts 285°
2026-05-07 07:11 35.46627 24.49478 12093 ft 155 kts 284°
2026-05-07 07:11 35.46858 24.48183 12093 ft 155 kts 284°
2026-05-07 07:12 35.47090 24.46887 12093 ft 155 kts 284°
2026-05-07 07:12 35.47321 24.45590 12094 ft 156 kts 284°
2026-05-07 07:12 35.47552 24.44291 12095 ft 156 kts 284°
2026-05-07 07:12 35.47790 24.42997 12095 ft 155 kts 287°
2026-05-07 07:13 35.48058 24.41711 12095 ft 156 kts 285°
2026-05-07 07:13 35.48298 24.40414 12095 ft 156 kts 284°
2026-05-07 07:13 35.48529 24.39112 12095 ft 156 kts 284°
2026-05-07 07:13 35.48754 24.37826 12094 ft 156 kts 284°
2026-05-07 07:14 35.48982 24.36524 12091 ft 156 kts 284°
2026-05-07 07:14 35.49210 24.35218 12092 ft 156 kts 284°
2026-05-07 07:14 35.49438 24.33913 12089 ft 156 kts 284°
2026-05-07 07:14 35.49665 24.32605 12090 ft 156 kts 284°
2026-05-07 07:15 35.49893 24.31301 12091 ft 156 kts 284°
2026-05-07 07:15 35.50121 24.29993 12088 ft 156 kts 284°
2026-05-07 07:15 35.50348 24.28688 12091 ft 156 kts 284°
2026-05-07 07:15 35.50574 24.27380 12087 ft 157 kts 284°
2026-05-07 07:16 35.50801 24.26073 12088 ft 157 kts 284°
2026-05-07 07:16 35.51027 24.24780 12089 ft 157 kts 284°
2026-05-07 07:16 35.51254 24.23471 12089 ft 157 kts 284°
2026-05-07 07:16 35.51482 24.22161 12086 ft 157 kts 284°
2026-05-07 07:17 35.51709 24.20849 12088 ft 157 kts 284°
2026-05-07 07:17 35.51936 24.19538 12087 ft 157 kts 284°
2026-05-07 07:17 35.52169 24.18228 12092 ft 158 kts 288°
2026-05-07 07:17 35.52726 24.17089 12086 ft 157 kts 316°
2026-05-07 07:18 35.53585 24.16265 12096 ft 156 kts 322°
2026-05-07 07:18 35.54431 24.15460 12094 ft 157 kts 320°
2026-05-07 07:18 35.55251 24.14522 12022 ft 161 kts 320°
2026-05-07 07:18 35.56167 24.13733 12005 ft 161 kts 326°
2026-05-07 07:19 35.57074 24.12951 11981 ft 161 kts 323°
2026-05-07 07:19 35.57966 24.12118 11959 ft 161 kts 322°
2026-05-07 07:19 35.58857 24.11275 11936 ft 162 kts 322°
2026-05-07 07:19 35.59752 24.10426 11916 ft 164 kts 322°
2026-05-07 07:20 35.60654 24.09570 11888 ft 163 kts 322°
2026-05-07 07:20 35.61550 24.08721 11863 ft 162 kts 322°
2026-05-07 07:20 35.62441 24.07876 11837 ft 161 kts 322°
2026-05-07 07:20 35.63328 24.07036 11813 ft 161 kts 322°
2026-05-07 07:21 35.64200 24.06206 11787 ft 160 kts 322°
2026-05-07 07:21 35.65083 24.05366 11760 ft 160 kts 322°
2026-05-07 07:21 35.65964 24.04528 11737 ft 160 kts 322°
2026-05-07 07:21 35.66847 24.03692 11709 ft 160 kts 322°
2026-05-07 07:22 35.67727 24.02857 11686 ft 160 kts 322°
2026-05-07 07:22 35.68609 24.02020 11661 ft 160 kts 322°
2026-05-07 07:22 35.69489 24.01184 11636 ft 160 kts 322°
2026-05-07 07:22 35.70358 24.00357 11612 ft 160 kts 322°
2026-05-07 07:23 35.71239 23.99520 11588 ft 160 kts 322°
2026-05-07 07:23 35.72120 23.98682 11562 ft 160 kts 322°
2026-05-07 07:23 35.73003 23.97842 11537 ft 160 kts 322°
2026-05-07 07:23 35.73880 23.97006 11512 ft 160 kts 322°
2026-05-07 07:24 35.74752 23.96177 11553 ft 156 kts 322°
2026-05-07 07:24 35.75600 23.95368 11617 ft 152 kts 322°
2026-05-07 07:24 35.76418 23.94589 11680 ft 149 kts 322°
2026-05-07 07:24 35.77229 23.93816 11744 ft 146 kts 322°
2026-05-07 07:25 35.78823 23.92297 11876 ft 143 kts 322°
2026-05-07 07:25 35.79608 23.91548 11944 ft 142 kts 322°
2026-05-07 07:25 35.80386 23.90805 12014 ft 141 kts 322°
2026-05-07 07:26 35.81160 23.90067 12087 ft 140 kts 322°
2026-05-07 07:26 35.81936 23.89326 12103 ft 143 kts 322°
2026-05-07 07:26 35.82732 23.88568 12107 ft 146 kts 322°
2026-05-07 07:26 35.83530 23.87806 12113 ft 148 kts 322°
2026-05-07 07:27 35.84348 23.87025 12113 ft 150 kts 322°
2026-05-07 07:27 35.85176 23.86234 12118 ft 151 kts 322°
2026-05-07 07:27 35.86010 23.85437 12117 ft 152 kts 322°
2026-05-07 07:27 35.86851 23.84633 12111 ft 153 kts 322°
2026-05-07 07:28 35.87696 23.83824 12109 ft 154 kts 322°
2026-05-07 07:28 35.88545 23.83012 12113 ft 154 kts 322°
2026-05-07 07:28 35.89396 23.82199 12117 ft 155 kts 322°
2026-05-07 07:28 35.90246 23.81385 12116 ft 155 kts 322°
2026-05-07 07:29 35.91098 23.80569 12110 ft 155 kts 322°
2026-05-07 07:29 35.91951 23.79753 12111 ft 155 kts 322°
2026-05-07 07:29 35.92793 23.78946 12116 ft 155 kts 322°
2026-05-07 07:29 35.93647 23.78128 12115 ft 155 kts 322°
2026-05-07 07:30 35.94501 23.77309 12112 ft 156 kts 322°
2026-05-07 07:30 35.95357 23.76489 12115 ft 156 kts 322°
2026-05-07 07:30 35.96211 23.75670 12109 ft 156 kts 322°
2026-05-07 07:30 35.97067 23.74849 12116 ft 156 kts 322°
2026-05-07 07:31 35.97925 23.74026 12116 ft 156 kts 322°
2026-05-07 07:31 35.98782 23.73203 12112 ft 156 kts 322°
2026-05-07 07:31 35.99640 23.72379 12113 ft 156 kts 322°
2026-05-07 07:31 36.00497 23.71557 12115 ft 156 kts 322°
2026-05-07 07:32 36.01353 23.70734 12113 ft 156 kts 322°
2026-05-07 07:32 36.02202 23.69918 12109 ft 156 kts 322°
2026-05-07 07:32 36.03060 23.69095 12115 ft 156 kts 322°
2026-05-07 07:32 36.03916 23.68272 12115 ft 156 kts 322°
2026-05-07 07:33 36.04772 23.67448 12114 ft 156 kts 322°
2026-05-07 07:33 36.05629 23.66624 12112 ft 156 kts 322°
2026-05-07 07:33 36.06486 23.65799 12110 ft 156 kts 322°
2026-05-07 07:33 36.07343 23.64975 12113 ft 156 kts 322°
2026-05-07 07:34 36.08198 23.64151 12111 ft 156 kts 322°
2026-05-07 07:34 36.09043 23.63338 12111 ft 156 kts 322°
2026-05-07 07:34 36.09910 23.62503 12111 ft 156 kts 322°
2026-05-07 07:34 36.10755 23.61688 12107 ft 156 kts 322°
2026-05-07 07:35 36.11613 23.60861 12110 ft 156 kts 322°
2026-05-07 07:35 36.12475 23.60029 12052 ft 160 kts 322°
2026-05-07 07:35 36.13375 23.59163 11888 ft 168 kts 322°
2026-05-07 07:35 36.14310 23.58261 11730 ft 173 kts 322°
2026-05-07 07:36 36.15267 23.57337 11571 ft 176 kts 322°
2026-05-07 07:36 36.16237 23.56401 11408 ft 178 kts 322°
2026-05-07 07:36 36.17217 23.55454 11237 ft 179 kts 322°
2026-05-07 07:36 36.18197 23.54507 11079 ft 178 kts 321°
2026-05-07 07:37 36.19171 23.53566 10891 ft 177 kts 321°
2026-05-07 07:37 36.20128 23.52641 10698 ft 176 kts 321°
2026-05-07 07:37 36.21095 23.51705 10507 ft 176 kts 321°
2026-05-07 07:37 36.22061 23.50772 10320 ft 176 kts 321°
2026-05-07 07:38 36.23024 23.49840 10131 ft 175 kts 321°
2026-05-07 07:38 36.23972 23.48925 9928 ft 170 kts 321°
2026-05-07 07:38 36.24893 23.48030 9717 ft 167 kts 320°
2026-05-07 07:38 36.25605 23.46918 9503 ft 165 kts 294°
2026-05-07 07:39 36.25846 23.45536 9299 ft 165 kts 273°
2026-05-07 07:39 36.25892 23.44117 9095 ft 165 kts 274°
2026-05-07 07:39 36.25959 23.42703 8893 ft 164 kts 274°
2026-05-07 07:39 36.26022 23.41290 8691 ft 164 kts 273°
2026-05-07 07:40 36.26083 23.39878 8492 ft 164 kts 273°
2026-05-07 07:40 36.26144 23.38468 8289 ft 164 kts 273°
2026-05-07 07:40 36.26203 23.37079 8094 ft 164 kts 272°
2026-05-07 07:40 36.26264 23.35670 7900 ft 163 kts 272°
2026-05-07 07:41 36.26324 23.34268 7702 ft 163 kts 272°
2026-05-07 07:41 36.26384 23.32867 7509 ft 163 kts 272°
2026-05-07 07:41 36.26443 23.31467 7317 ft 163 kts 272°
2026-05-07 07:41 36.26503 23.30066 7129 ft 162 kts 271°
2026-05-07 07:42 36.26562 23.28672 6979 ft 161 kts 271°
2026-05-07 07:42 36.26619 23.27313 6837 ft 160 kts 271°
2026-05-07 07:42 36.26677 23.25938 6695 ft 159 kts 271°
2026-05-07 07:42 36.26735 23.24569 6551 ft 159 kts 271°
2026-05-07 07:43 36.26793 23.23200 6397 ft 159 kts 270°
2026-05-07 07:43 36.26850 23.21829 6243 ft 159 kts 271°
2026-05-07 07:43 36.26906 23.20461 6087 ft 159 kts 270°
2026-05-07 07:43 36.26963 23.19094 5942 ft 159 kts 270°
2026-05-07 07:44 36.27019 23.17729 5791 ft 159 kts 270°
2026-05-07 07:44 36.27057 23.16822 5692 ft 159 kts 270°
2026-05-07 07:44 36.27114 23.15452 5545 ft 159 kts 270°
2026-05-07 07:44 36.27170 23.14084 5396 ft 159 kts 270°
2026-05-07 07:45 36.27226 23.12702 5197 ft 162 kts 270°
2026-05-07 07:45 36.27284 23.11309 5046 ft 161 kts 270°
2026-05-07 07:45 36.27340 23.09936 4894 ft 157 kts 270°
2026-05-07 07:45 36.27395 23.08591 4740 ft 155 kts 270°
2026-05-07 07:46 36.27448 23.07268 4592 ft 156 kts 270°
2026-05-07 07:46 36.27502 23.05931 4471 ft 156 kts 270°
2026-05-07 07:46 36.27561 23.04546 4302 ft 163 kts 274°
2026-05-07 07:46 36.27986 23.03258 4151 ft 166 kts 303°
2026-05-07 07:47 36.28862 23.02331 3991 ft 169 kts 331°
2026-05-07 07:47 36.30011 23.02012 3849 ft 173 kts 360°
2026-05-07 07:47 36.31204 23.02189 3680 ft 169 kts
2026-05-07 07:47 36.32349 23.02372 3558 ft 163 kts
2026-05-07 07:48 36.33443 23.02543 3533 ft 154 kts
2026-05-07 07:48 36.34472 23.02700 3518 ft 149 kts
2026-05-07 07:48 36.35490 23.02856 3502 ft 146 kts
2026-05-07 07:48 36.36487 23.03007 3490 ft 143 kts
2026-05-07 07:49 36.37470 23.03159 3480 ft 142 kts
2026-05-07 07:49 36.38444 23.03307 3474 ft 140 kts
2026-05-07 07:49 36.39409 23.03454 3469 ft 140 kts
2026-05-07 07:49 36.40307 23.03901 3426 ft 142 kts 37°
2026-05-07 07:50 36.40957 23.04817 3376 ft 143 kts 63°
2026-05-07 07:50 36.41208 23.05993 3316 ft 141 kts 95°
2026-05-07 07:50 36.40774 23.07000 3259 ft 134 kts 149°
2026-05-07 07:50 36.39913 23.07394 3209 ft 131 kts 162°
2026-05-07 07:51 36.39077 23.07732 3129 ft 125 kts 171°
2026-05-07 07:51 36.38241 23.07800 3059 ft 114 kts 185°
2026-05-07 07:51 36.37533 23.07515 2975 ft 103 kts 202°
2026-05-07 07:51 36.36884 23.07187 2894 ft 97 kts 204°
2026-05-07 07:52 36.36289 23.06860 2789 ft 95 kts 205°
2026-05-07 07:52 36.35678 23.06512 2649 ft 98 kts 205°
2026-05-07 07:52 36.35069 23.06152 2481 ft 96 kts 206°
2026-05-07 07:52 36.34464 23.05792 2305 ft 96 kts 206°
2026-05-07 07:53 36.33866 23.05440 2134 ft 95 kts 204°
2026-05-07 07:53 36.33283 23.05085 1946 ft 95 kts 208°
2026-05-07 07:53 36.32750 23.04770 1890 ft 78 kts 205°
2026-05-07 07:53 36.32248 23.04502 1780 ft 80 kts 203°
2026-05-07 07:54 36.31730 23.04243 1682 ft 80 kts 202°
2026-05-07 07:54 36.31228 23.03987 1634 ft 77 kts 204°
2026-05-07 07:54 36.30738 23.03720 1574 ft 78 kts 203°
2026-05-07 07:54 36.30237 23.03442 1508 ft 79 kts 206°
2026-05-07 07:55 36.29753 23.03138 1461 ft 78 kts 207°
2026-05-07 07:55 36.29262 23.02858 1465 ft 78 kts 204°
2026-05-07 07:55 36.28778 23.02532 1322 ft 80 kts 209°
2026-05-07 07:55 36.28281 23.02216 1159 ft 80 kts 206°
2026-05-07 07:56 36.27788 23.01918 1037 ft 76 kts 205°
2026-05-07 07:56 36.27450 23.01714 1022 ft 19 kts 207°
2026-05-07 07:56 36.27422 23.01634 1025 ft 13 kts 314°
2026-05-07 07:56 36.27452 23.01609 1024 ft 3 kts 332°
2026-05-07 07:57 36.27488 23.01576 1027 ft 8 kts 296°
2026-05-07 07:57 36.27540 23.01541 1026 ft 13 kts 15°
2026-05-07 07:57 36.27558 23.01568 1026 ft 0 kts 123°